Time;durP1;ratioP1;P1;durP2;ratioP2;P2;SDS_P1;SDS_P2;PMS_P1;PMS_P2;Temp;Humidity;BMP_temperature;BMP_pressure;BME280_temperature;BME280_humidity;BME280_pressure;Samples;Min_cycle;Max_cycle;Signal;HPM_P1;HPM_P2
2021/04/29 00:01:29;;;;;;;1.15;1.15;;;;;;;;;;5073424;28;20646;-66
2021/04/29 00:03:55;;;;;;;3.23;2.00;;;;;;;;;;5073454;28;20183;-67
2021/04/29 00:06:21;;;;;;;1.52;1.42;;;;;;;;;;5073167;28;20426;-65
2021/04/29 00:08:47;;;;;;;1.20;1.10;;;;;;;;;;5072674;28;20216;-67
2021/04/29 00:11:13;;;;;;;1.10;1.10;;;;;;;;;;5073053;28;20170;-65
2021/04/29 00:13:39;;;;;;;1.70;1.60;;;;;;;;;;5073345;28;20266;-66
2021/04/29 00:16:06;;;;;;;1.52;1.42;;;;;;;;;;5073030;28;20240;-67
2021/04/29 00:18:32;;;;;;;3.08;2.55;;;;;;;;;;5072869;28;20226;-66
2021/04/29 00:20:59;;;;;;;2.63;2.30;;;;;;;;;;5072462;28;20224;-67
2021/04/29 00:23:25;;;;;;;1.58;1.48;;;;;;;;;;5072927;28;20570;-65
2021/04/29 00:25:51;;;;;;;2.00;1.90;;;;;;;;;;5072962;28;20269;-65
2021/04/29 00:28:17;;;;;;;3.05;2.15;;;;;;;;;;5072887;28;20216;-64
2021/04/29 00:30:43;;;;;;;2.30;1.50;;;;;;;;;;5072065;28;20720;-65
2021/04/29 00:33:09;;;;;;;2.10;1.60;;;;;;;;;;5072733;28;20542;-65
2021/04/29 00:35:35;;;;;;;2.88;2.50;;;;;;;;;;5072631;28;20495;-64
2021/04/29 00:38:01;;;;;;;1.85;1.75;;;;;;;;;;5072544;28;20198;-64
2021/04/29 00:40:27;;;;;;;2.35;1.50;;;;;;;;;;5072131;28;20163;-64
2021/04/29 00:42:53;;;;;;;1.70;1.60;;;;;;;;;;5072626;28;20527;-65
2021/04/29 00:45:19;;;;;;;2.30;2.10;;;;;;;;;;5054410;28;20195;-64
2021/04/29 00:47:48;;;;;;;3.03;2.78;;;;;;;;;;5071686;28;20962;-65
2021/04/29 00:50:14;;;;;;;2.83;2.33;;;;;;;;;;5071721;28;20756;-65
2021/04/29 00:52:41;;;;;;;5.18;3.50;;;;;;;;;;5072431;28;20246;-66
2021/04/29 00:55:08;;;;;;;1.95;1.83;;;;;;;;;;5072203;28;20261;-65
2021/04/29 00:57:34;;;;;;;2.53;2.35;;;;;;;;;;5072211;28;20205;-66
2021/04/29 01:00:00;;;;;;;3.25;1.83;;;;;;;;;;5071531;28;20543;-65
2021/04/29 01:02:27;;;;;;;1.65;1.52;;;;;;;;;;5072352;28;20190;-65
2021/04/29 01:04:56;;;;;;;1.48;1.38;;;;;;;;;;5071965;28;20685;-65
2021/04/29 01:07:25;;;;;;;0.70;0.70;;;;;;;;;;5072128;28;20277;-65
2021/04/29 01:09:55;;;;;;;2.33;2.22;;;;;;;;;;5071333;28;20187;-66
2021/04/29 01:12:26;;;;;;;2.45;1.75;;;;;;;;;;5071982;28;20170;-66
2021/04/29 01:14:53;;;;;;;1.52;1.42;;;;;;;;;;5072148;28;20202;-67
2021/04/29 01:17:20;;;;;;;3.80;1.48;;;;;;;;;;5071761;28;20211;-66
2021/04/29 01:19:49;;;;;;;1.75;1.50;;;;;;;;;;5071402;28;20176;-67
2021/04/29 01:22:15;;;;;;;1.50;1.13;;;;;;;;;;5071890;28;20167;-65
2021/04/29 01:24:56;;;;;;;2.30;1.25;;;;;;;;;;5071877;28;20187;-66
2021/04/29 01:27:23;;;;;;;3.25;2.33;;;;;;;;;;5071587;28;20179;-65
2021/04/29 01:29:49;;;;;;;4.95;1.73;;;;;;;;;;5070966;28;20167;-66
2021/04/29 01:32:15;;;;;;;3.08;1.70;;;;;;;;;;5071608;28;20168;-66
2021/04/29 01:34:41;;;;;;;2.00;1.90;;;;;;;;;;5071378;28;20227;-66
2021/04/29 01:37:08;;;;;;;1.93;1.83;;;;;;;;;;5071486;28;20194;-66
2021/04/29 01:39:35;;;;;;;1.80;1.23;;;;;;;;;;5070623;28;20943;-65
2021/04/29 01:42:01;;;;;;;0.80;0.80;;;;;;;;;;5071469;28;20663;-66
2021/04/29 01:44:27;;;;;;;1.60;1.60;;;;;;;;;;5071486;28;20171;-66
2021/04/29 01:46:58;;;;;;;0.90;0.90;;;;;;;;;;5071361;28;20172;-65
2021/04/29 01:49:24;;;;;;;0.70;0.70;;;;;;;;;;5067902;28;20190;-65
2021/04/29 01:51:51;;;;;;;1.17;1.08;;;;;;;;;;5071350;28;20308;-65
2021/04/29 01:54:17;;;;;;;1.40;1.30;;;;;;;;;;5071240;28;20721;-66
2021/04/29 01:56:43;;;;;;;0.95;0.80;;;;;;;;;;5071155;28;20755;-66
2021/04/29 01:59:10;;;;;;;1.23;1.13;;;;;;;;;;5070228;28;20272;-66
2021/04/29 02:01:37;;;;;;;0.75;0.75;;;;;;;;;;5071131;28;20188;-66
2021/04/29 02:04:03;;;;;;;0.93;0.93;;;;;;;;;;5071090;28;20163;-66
2021/04/29 02:06:29;;;;;;;1.27;1.20;;;;;;;;;;5071032;28;20190;-66
2021/04/29 02:08:55;;;;;;;0.75;0.75;;;;;;;;;;5070721;28;20214;-65
2021/04/29 02:11:21;;;;;;;0.47;0.47;;;;;;;;;;5071430;28;20175;-66
2021/04/29 02:13:48;;;;;;;1.23;0.60;;;;;;;;;;5071160;28;20175;-65
2021/04/29 02:16:19;;;;;;;0.60;0.60;;;;;;;;;;5071028;28;20190;-67
2021/04/29 02:18:46;;;;;;;0.50;0.50;;;;;;;;;;5070345;28;20198;-66
2021/04/29 02:21:16;;;;;;;0.43;0.43;;;;;;;;;;5070796;28;20171;-67
2021/04/29 02:23:44;;;;;;;1.40;1.15;;;;;;;;;;5070905;28;20167;-67
2021/04/29 02:26:11;;;;;;;1.15;1.05;;;;;;;;;;5070909;28;20889;-67
2021/04/29 02:28:37;;;;;;;1.75;0.70;;;;;;;;;;5070829;28;20657;-66
2021/04/29 02:31:04;;;;;;;0.68;0.68;;;;;;;;;;5070191;28;20171;-67
2021/04/29 02:33:30;;;;;;;0.60;0.60;;;;;;;;;;5070863;28;20199;-66
2021/04/29 02:35:56;;;;;;;0.60;0.40;;;;;;;;;;5070612;28;20225;-66
2021/04/29 02:38:22;;;;;;;0.55;0.55;;;;;;;;;;5070723;28;20279;-67
2021/04/29 02:40:49;;;;;;;0.50;0.50;;;;;;;;;;5070181;28;20255;-65
2021/04/29 02:43:17;;;;;;;1.30;0.68;;;;;;;;;;5070788;28;20254;-65
2021/04/29 02:45:43;;;;;;;1.27;1.17;;;;;;;;;;5070619;28;20308;-65
2021/04/29 02:48:09;;;;;;;0.70;0.70;;;;;;;;;;5070877;28;20214;-66
2021/04/29 02:50:35;;;;;;;0.45;0.45;;;;;;;;;;5070105;28;20198;-66
2021/04/29 02:53:02;;;;;;;0.70;0.65;;;;;;;;;;5070884;28;20781;-67
2021/04/29 02:55:28;;;;;;;0.95;0.90;;;;;;;;;;5070615;28;20295;-67
2021/04/29 02:58:01;;;;;;;0.40;0.40;;;;;;;;;;5070545;28;20194;-67
2021/04/29 03:00:28;;;;;;;0.68;0.68;;;;;;;;;;5069976;28;20174;-67
2021/04/29 03:02:54;;;;;;;0.50;0.50;;;;;;;;;;5070669;28;20243;-66
2021/04/29 03:05:20;;;;;;;0.75;0.75;;;;;;;;;;5070785;28;20199;-67
2021/04/29 03:07:46;;;;;;;0.40;0.40;;;;;;;;;;5070604;28;20175;-67
2021/04/29 03:10:12;;;;;;;0.63;0.40;;;;;;;;;;5071727;28;20410;-65
2021/04/29 03:12:39;;;;;;;0.40;0.40;;;;;;;;;;5074339;28;20405;-67
2021/04/29 03:15:06;;;;;;;0.85;0.85;;;;;;;;;;5074364;28;20684;-67
2021/04/29 03:17:32;;;;;;;0.95;0.95;;;;;;;;;;5074139;28;20262;-66
2021/04/29 03:19:58;;;;;;;0.70;0.60;;;;;;;;;;5073596;28;20539;-66
2021/04/29 03:22:24;;;;;;;0.40;0.40;;;;;;;;;;5074088;28;20405;-66
2021/04/29 03:24:50;;;;;;;0.88;0.85;;;;;;;;;;5074260;28;20184;-66
2021/04/29 03:27:16;;;;;;;0.63;0.63;;;;;;;;;;5074185;28;20274;-67
2021/04/29 03:29:43;;;;;;;0.38;0.38;;;;;;;;;;5073311;28;20187;-65
2021/04/29 03:32:09;;;;;;;0.60;0.60;;;;;;;;;;5073696;28;20191;-67
2021/04/29 03:34:35;;;;;;;1.85;0.65;;;;;;;;;;5073717;28;20187;-66
2021/04/29 03:37:01;;;;;;;0.40;0.40;;;;;;;;;;5073942;28;20300;-67
2021/04/29 03:39:27;;;;;;;0.55;0.55;;;;;;;;;;5073117;28;20464;-66
2021/04/29 03:41:53;;;;;;;1.35;1.02;;;;;;;;;;5073848;28;20163;-64
2021/04/29 03:44:19;;;;;;;0.75;0.52;;;;;;;;;;5073816;28;20175;-64
2021/04/29 03:46:45;;;;;;;0.30;0.30;;;;;;;;;;5073726;28;20582;-64
2021/04/29 03:49:11;;;;;;;0.40;0.40;;;;;;;;;;5073088;28;20312;-64
2021/04/29 03:51:37;;;;;;;0.50;0.50;;;;;;;;;;5072037;28;20504;-68
2021/04/29 03:54:03;;;;;;;0.50;0.50;;;;;;;;;;5073746;28;20272;-67
2021/04/29 03:56:29;;;;;;;0.30;0.30;;;;;;;;;;5073304;28;20195;-65
2021/04/29 03:58:55;;;;;;;0.40;0.40;;;;;;;;;;5072737;28;20203;-67
2021/04/29 04:01:21;;;;;;;0.40;0.40;;;;;;;;;;5073344;28;20599;-65
2021/04/29 04:03:47;;;;;;;0.40;0.40;;;;;;;;;;5073384;28;20174;-67
2021/04/29 04:06:13;;;;;;;0.40;0.40;;;;;;;;;;5073415;28;20429;-67
2021/04/29 04:08:39;;;;;;;0.50;0.50;;;;;;;;;;5073069;28;20236;-65
2021/04/29 04:11:05;;;;;;;0.70;0.70;;;;;;;;;;5072702;28;20417;-67
2021/04/29 04:13:31;;;;;;;0.65;0.65;;;;;;;;;;5073164;28;20167;-66
2021/04/29 04:15:57;;;;;;;0.40;0.40;;;;;;;;;;5073026;28;20222;-65
2021/04/29 04:18:23;;;;;;;0.57;0.57;;;;;;;;;;5073021;28;20631;-67
2021/04/29 04:20:49;;;;;;;0.50;0.50;;;;;;;;;;5072065;28;20397;-67
2021/04/29 04:23:17;;;;;;;0.43;0.43;;;;;;;;;;5072531;28;20174;-67
2021/04/29 04:25:43;;;;;;;0.60;0.60;;;;;;;;;;5060863;28;20488;-65
2021/04/29 04:28:09;;;;;;;0.50;0.50;;;;;;;;;;5061942;28;20183;-65
2021/04/29 04:30:35;;;;;;;0.70;0.60;;;;;;;;;;5067618;28;20262;-67
2021/04/29 04:33:01;;;;;;;0.55;0.50;;;;;;;;;;5072552;28;20183;-66
2021/04/29 04:35:27;;;;;;;0.50;0.50;;;;;;;;;;5070598;28;20226;-63
2021/04/29 04:37:53;;;;;;;1.45;1.15;;;;;;;;;;5061782;28;20200;-67
2021/04/29 04:40:20;;;;;;;0.40;0.40;;;;;;;;;;5071508;28;20171;-66
2021/04/29 04:42:46;;;;;;;0.65;0.65;;;;;;;;;;5059960;28;20406;-63
2021/04/29 04:45:12;;;;;;;0.70;0.70;;;;;;;;;;5052337;28;20218;-65
2021/04/29 04:47:38;;;;;;;0.68;0.68;;;;;;;;;;5071591;28;20179;-64
2021/04/29 04:50:05;;;;;;;0.40;0.40;;;;;;;;;;5072059;28;20547;-66
2021/04/29 04:52:31;;;;;;;0.40;0.40;;;;;;;;;;5072675;28;20418;-66
2021/04/29 04:54:57;;;;;;;0.40;0.40;;;;;;;;;;5072444;28;20193;-66
2021/04/29 04:57:23;;;;;;;0.60;0.60;;;;;;;;;;5071328;28;20421;-67
2021/04/29 04:59:49;;;;;;;0.50;0.50;;;;;;;;;;5071273;28;20191;-67
2021/04/29 05:02:15;;;;;;;1.00;0.90;;;;;;;;;;5072130;28;20167;-67
2021/04/29 05:04:41;;;;;;;0.40;0.40;;;;;;;;;;5057493;28;20430;-65
2021/04/29 05:07:07;;;;;;;0.50;0.50;;;;;;;;;;5052040;28;20178;-65
2021/04/29 05:09:34;;;;;;;0.57;0.57;;;;;;;;;;5062057;28;20642;-64
2021/04/29 05:12:00;;;;;;;0.82;0.60;;;;;;;;;;5057159;28;20186;-65
2021/04/29 05:14:28;;;;;;;1.40;0.60;;;;;;;;;;5060581;28;20206;-63
2021/04/29 05:16:54;;;;;;;0.60;0.60;;;;;;;;;;5062909;28;20222;-65
2021/04/29 05:19:20;;;;;;;0.80;0.80;;;;;;;;;;5062793;28;20226;-67
2021/04/29 05:21:46;;;;;;;1.70;0.88;;;;;;;;;;5071545;28;20449;-67
2021/04/29 05:24:12;;;;;;;1.97;1.87;;;;;;;;;;5071213;28;20198;-68
2021/04/29 05:26:38;;;;;;;0.60;0.60;;;;;;;;;;5071356;28;20428;-65
2021/04/29 05:29:05;;;;;;;0.70;0.70;;;;;;;;;;5070293;28;20224;-66
2021/04/29 05:31:31;;;;;;;1.10;1.10;;;;;;;;;;5070785;28;20581;-66
2021/04/29 05:33:57;;;;;;;1.05;1.05;;;;;;;;;;5051060;28;20194;-66
2021/04/29 05:36:23;;;;;;;0.95;0.90;;;;;;;;;;5065621;22;20620;-63
2021/04/29 05:38:49;;;;;;;0.75;0.75;;;;;;;;;;5040832;28;20742;-63
2021/04/29 05:41:16;;;;;;;1.15;0.60;;;;;;;;;;5041930;28;20175;-63
2021/04/29 05:43:42;;;;;;;0.85;0.85;;;;;;;;;;5050769;28;20196;-63
2021/04/29 05:46:08;;;;;;;1.10;1.10;;;;;;;;;;5033327;28;20235;-63
2021/04/29 05:48:34;;;;;;;0.93;0.80;;;;;;;;;;5031153;28;20412;-63
2021/04/29 05:51:00;;;;;;;1.42;1.08;;;;;;;;;;5030622;28;20587;-63
2021/04/29 05:53:26;;;;;;;0.77;0.77;;;;;;;;;;5048189;28;20187;-63
2021/04/29 05:55:52;;;;;;;3.00;0.85;;;;;;;;;;5050740;28;20464;-63
2021/04/29 05:58:18;;;;;;;2.73;2.53;;;;;;;;;;5048989;28;20273;-63
2021/04/29 06:00:44;;;;;;;1.00;0.98;;;;;;;;;;5049583;28;20956;-63
2021/04/29 06:03:11;;;;;;;0.60;0.60;;;;;;;;;;5051015;28;20171;-63
2021/04/29 06:05:37;;;;;;;1.05;1.05;;;;;;;;;;5050835;28;20195;-63
2021/04/29 06:08:04;;;;;;;0.60;0.60;;;;;;;;;;5023719;28;20181;-64
2021/04/29 06:10:31;;;;;;;1.63;1.05;;;;;;;;;;4993225;28;20415;-63
2021/04/29 06:12:57;;;;;;;0.80;0.80;;;;;;;;;;5010857;28;20192;-63
2021/04/29 06:15:23;;;;;;;1.23;1.00;;;;;;;;;;5010883;28;20779;-63
2021/04/29 06:17:49;;;;;;;1.60;1.50;;;;;;;;;;5010539;28;20193;-63
2021/04/29 06:20:16;;;;;;;3.00;2.03;;;;;;;;;;5010315;28;20200;-63
2021/04/29 06:22:42;;;;;;;1.27;1.27;;;;;;;;;;5010934;28;20605;-63
2021/04/29 06:25:08;;;;;;;0.70;0.70;;;;;;;;;;5010632;28;20208;-63
2021/04/29 06:27:35;;;;;;;0.50;0.50;;;;;;;;;;5010665;28;20401;-63
2021/04/29 06:30:01;;;;;;;0.60;0.60;;;;;;;;;;5009679;28;20175;-63
2021/04/29 06:32:27;;;;;;;0.90;0.90;;;;;;;;;;5010868;28;20545;-63
2021/04/29 06:34:53;;;;;;;0.83;0.83;;;;;;;;;;5010705;28;20264;-63
2021/04/29 06:37:19;;;;;;;0.50;0.50;;;;;;;;;;5010568;28;20412;-63
2021/04/29 06:39:46;;;;;;;1.00;0.93;;;;;;;;;;5009715;28;20200;-65
2021/04/29 06:42:12;;;;;;;1.05;0.90;;;;;;;;;;5010813;28;20320;-64
2021/04/29 06:44:39;;;;;;;1.60;1.60;;;;;;;;;;5012648;28;20176;-66
2021/04/29 06:47:05;;;;;;;1.17;1.15;;;;;;;;;;4999305;28;20205;-62
2021/04/29 06:49:32;;;;;;;0.97;0.97;;;;;;;;;;5015411;28;20550;-65
2021/04/29 06:51:58;;;;;;;0.80;0.80;;;;;;;;;;5015818;28;20424;-63
2021/04/29 06:54:24;;;;;;;2.45;1.35;;;;;;;;;;5015970;28;20178;-64
2021/04/29 06:56:50;;;;;;;2.53;1.43;;;;;;;;;;5015496;28;20650;-63
2021/04/29 06:59:16;;;;;;;3.67;1.30;;;;;;;;;;5014430;28;20464;-62
2021/04/29 07:01:42;;;;;;;0.90;0.90;;;;;;;;;;5015114;28;20189;-63
2021/04/29 07:04:08;;;;;;;4.53;1.15;;;;;;;;;;5015105;28;20201;-63
2021/04/29 07:06:34;;;;;;;1.83;1.50;;;;;;;;;;5014523;28;20197;-63
2021/04/29 07:09:00;;;;;;;1.10;1.10;;;;;;;;;;5017295;28;20419;-62
2021/04/29 07:11:27;;;;;;;1.35;1.25;;;;;;;;;;5034731;28;20173;-63
2021/04/29 07:13:53;;;;;;;0.85;0.82;;;;;;;;;;5034319;28;20174;-63
2021/04/29 07:16:19;;;;;;;1.52;1.42;;;;;;;;;;5034267;28;20549;-62
2021/04/29 07:18:45;;;;;;;1.35;1.25;;;;;;;;;;5032654;28;20687;-63
2021/04/29 07:21:11;;;;;;;3.45;3.15;;;;;;;;;;5033906;28;20186;-64
2021/04/29 07:23:37;;;;;;;3.13;1.40;;;;;;;;;;5034155;28;20170;-63
2021/04/29 07:26:03;;;;;;;4.45;1.52;;;;;;;;;;5033901;28;20787;-63
2021/04/29 07:28:29;;;;;;;1.05;1.00;;;;;;;;;;5034208;28;20204;-63
2021/04/29 07:30:55;;;;;;;1.98;1.83;;;;;;;;;;5033082;28;20178;-63
2021/04/29 07:33:22;;;;;;;2.05;1.77;;;;;;;;;;5033910;28;20184;-63
2021/04/29 07:35:48;;;;;;;0.95;0.95;;;;;;;;;;5033788;28;20233;-63
2021/04/29 07:38:14;;;;;;;2.33;2.22;;;;;;;;;;5033993;28;20230;-63
2021/04/29 07:40:40;;;;;;;2.08;1.98;;;;;;;;;;5033476;28;20645;-63
2021/04/29 07:43:06;;;;;;;2.63;1.47;;;;;;;;;;5033598;28;20177;-63
2021/04/29 07:45:33;;;;;;;2.28;1.67;;;;;;;;;;5033489;28;20750;-63
2021/04/29 07:47:59;;;;;;;1.38;1.27;;;;;;;;;;5033799;28;20196;-63
2021/04/29 07:50:27;;;;;;;2.30;2.13;;;;;;;;;;5032811;28;20228;-63
2021/04/29 07:52:53;;;;;;;1.20;1.10;;;;;;;;;;5032683;28;20238;-63
2021/04/29 07:55:19;;;;;;;1.88;1.77;;;;;;;;;;5032476;28;20206;-63
2021/04/29 07:57:45;;;;;;;1.47;1.37;;;;;;;;;;5033386;28;20176;-65
2021/04/29 08:00:12;;;;;;;2.90;2.70;;;;;;;;;;5032930;28;20446;-63
2021/04/29 08:02:38;;;;;;;1.30;1.10;;;;;;;;;;5033471;28;20410;-63
2021/04/29 08:05:05;;;;;;;1.70;1.57;;;;;;;;;;5033231;28;20404;-63
2021/04/29 08:07:31;;;;;;;2.43;1.27;;;;;;;;;;5033069;28;20552;-63
2021/04/29 08:09:57;;;;;;;2.00;1.67;;;;;;;;;;5032645;28;20470;-63
2021/04/29 08:12:23;;;;;;;2.27;1.70;;;;;;;;;;5033418;28;20382;-63
2021/04/29 08:14:49;;;;;;;2.87;2.30;;;;;;;;;;5015551;28;20424;-64
2021/04/29 08:17:15;;;;;;;3.17;1.90;;;;;;;;;;5033233;28;20826;-62
2021/04/29 08:19:42;;;;;;;2.03;1.90;;;;;;;;;;5032062;28;20463;-63
2021/04/29 08:22:08;;;;;;;2.80;2.13;;;;;;;;;;5031361;28;20414;-64
2021/04/29 08:24:34;;;;;;;3.43;2.10;;;;;;;;;;5032843;28;20400;-63
2021/04/29 08:27:00;;;;;;;4.13;3.60;;;;;;;;;;5032193;28;20431;-63
2021/04/29 08:29:26;;;;;;;2.57;2.30;;;;;;;;;;5013809;28;20415;-63
2021/04/29 08:31:52;;;;;;;2.63;2.43;;;;;;;;;;5032524;28;20415;-63
2021/04/29 08:34:18;;;;;;;3.20;2.00;;;;;;;;;;5032683;28;20431;-63
2021/04/29 08:36:44;;;;;;;3.27;2.40;;;;;;;;;;5032857;28;20470;-63
2021/04/29 08:39:10;;;;;;;1.93;1.83;;;;;;;;;;5032310;28;20438;-63
2021/04/29 08:41:36;;;;;;;2.83;2.30;;;;;;;;;;5033025;28;20731;-64
2021/04/29 08:44:03;;;;;;;3.90;2.43;;;;;;;;;;5032592;28;20757;-63
2021/04/29 08:46:29;;;;;;;4.13;3.07;;;;;;;;;;5032790;28;20547;-63
2021/04/29 08:48:56;;;;;;;3.80;2.27;;;;;;;;;;5032018;28;20415;-62
2021/04/29 08:51:23;;;;;;;4.70;3.17;;;;;;;;;;5032715;28;20437;-62
2021/04/29 08:53:50;;;;;;;3.43;2.53;;;;;;;;;;5033133;28;20442;-63
2021/04/29 08:56:22;;;;;;;4.13;2.27;;;;;;;;;;5032333;28;20436;-63
2021/04/29 08:58:49;;;;;;;3.53;2.47;;;;;;;;;;5032028;28;20460;-63
2021/04/29 09:01:15;;;;;;;3.93;2.03;;;;;;;;;;5032415;28;20411;-63
2021/04/29 09:03:41;;;;;;;2.03;1.90;;;;;;;;;;5032390;28;20895;-63
2021/04/29 09:06:07;;;;;;;2.93;2.33;;;;;;;;;;5032330;28;20398;-62
2021/04/29 09:08:35;;;;;;;1.70;1.60;;;;;;;;;;5030718;28;20502;-63
2021/04/29 09:11:06;;;;;;;3.17;2.60;;;;;;;;;;5031515;28;20543;-63
2021/04/29 09:13:33;;;;;;;6.27;3.23;;;;;;;;;;5032290;28;20432;-63
2021/04/29 09:16:05;;;;;;;2.67;2.37;;;;;;;;;;5031991;28;20437;-62
2021/04/29 09:18:31;;;;;;;3.20;2.47;;;;;;;;;;5032121;28;20738;-62
2021/04/29 09:21:00;;;;;;;3.83;2.77;;;;;;;;;;5031117;28;20404;-63
2021/04/29 09:23:29;;;;;;;3.15;1.88;;;;;;;;;;5032209;28;20400;-62
2021/04/29 09:25:56;;;;;;;2.45;2.20;;;;;;;;;;5031958;28;20198;-63
2021/04/29 09:28:34;;;;;;;2.60;2.23;;;;;;;;;;5032094;28;20180;-62
2021/04/29 09:31:01;;;;;;;2.55;2.33;;;;;;;;;;5031304;28;20410;-63
2021/04/29 09:33:31;;;;;;;2.30;2.15;;;;;;;;;;5031530;28;20172;-62
2021/04/29 09:35:57;;;;;;;2.53;2.22;;;;;;;;;;5031894;28;20204;-62
2021/04/29 09:38:30;;;;;;;2.90;1.83;;;;;;;;;;5031528;28;20193;-64
2021/04/29 09:40:56;;;;;;;8.27;2.28;;;;;;;;;;5031055;28;20407;-64
2021/04/29 09:43:22;;;;;;;0.75;0.75;;;;;;;;;;5031535;28;20177;-64
2021/04/29 09:45:54;;;;;;;1.63;1.52;;;;;;;;;;5030876;28;20738;-64
2021/04/29 09:48:22;;;;;;;2.97;1.55;;;;;;;;;;5031427;28;20686;-64
2021/04/29 09:50:51;;;;;;;1.67;1.42;;;;;;;;;;5030515;28;20173;-64
2021/04/29 09:53:17;;;;;;;4.38;2.03;;;;;;;;;;5031360;28;20177;-64
2021/04/29 09:55:45;;;;;;;1.65;1.55;;;;;;;;;;5031894;28;20199;-64
2021/04/29 09:58:15;;;;;;;4.25;2.10;;;;;;;;;;5031052;28;20204;-64
2021/04/29 10:00:42;;;;;;;2.05;1.92;;;;;;;;;;5030898;28;20185;-64
2021/04/29 10:03:08;;;;;;;2.25;1.60;;;;;;;;;;5013750;28;20529;-62
2021/04/29 10:05:39;;;;;;;2.15;2.00;;;;;;;;;;5031393;28;20198;-62
2021/04/29 10:08:06;;;;;;;1.87;1.73;;;;;;;;;;5031487;28;20175;-63
2021/04/29 10:10:33;;;;;;;6.53;2.07;;;;;;;;;;5030688;28;20420;-63
2021/04/29 10:13:02;;;;;;;2.67;2.47;;;;;;;;;;5031200;28;20408;-63
2021/04/29 10:15:29;;;;;;;4.20;2.57;;;;;;;;;;5031077;28;20430;-64
2021/04/29 10:17:55;;;;;;;3.00;1.70;;;;;;;;;;5031834;28;20419;-64
2021/04/29 10:20:21;;;;;;;3.07;2.03;;;;;;;;;;5030045;28;20466;-64
2021/04/29 10:22:47;;;;;;;4.73;2.67;;;;;;;;;;5031102;28;20826;-63
2021/04/29 10:25:13;;;;;;;10.13;2.60;;;;;;;;;;5031319;28;20451;-63
2021/04/29 10:27:44;;;;;;;2.80;2.57;;;;;;;;;;5030964;28;20458;-63
2021/04/29 10:30:16;;;;;;;2.20;2.00;;;;;;;;;;5030647;28;20411;-63
2021/04/29 10:32:42;;;;;;;3.43;2.07;;;;;;;;;;5030774;28;20411;-63
2021/04/29 10:35:18;;;;;;;2.73;1.70;;;;;;;;;;5031839;28;21393;-63
2021/04/29 10:38:00;;;;;;;1.83;1.73;;;;;;;;;;5030868;28;20390;-64
2021/04/29 10:40:35;;;;;;;1.80;1.70;;;;;;;;;;5030599;28;20899;-63
2021/04/29 10:43:01;;;;;;;2.53;2.20;;;;;;;;;;5031110;28;20399;-63
2021/04/29 10:45:28;;;;;;;2.93;1.80;;;;;;;;;;5030783;28;20401;-63
2021/04/29 10:48:10;;;;;;;4.57;3.97;;;;;;;;;;5030768;28;20945;-63
2021/04/29 10:50:41;;;;;;;3.40;2.00;;;;;;;;;;5030301;28;20438;-63
2021/04/29 10:53:07;;;;;;;2.70;2.23;;;;;;;;;;5030674;28;20495;-62
2021/04/29 10:55:36;;;;;;;1.47;1.37;;;;;;;;;;5030700;28;20431;-63
2021/04/29 10:58:02;;;;;;;2.23;2.07;;;;;;;;;;5030128;28;20530;-62
2021/04/29 11:00:33;;;;;;;2.00;1.80;;;;;;;;;;5030244;28;20408;-63
2021/04/29 11:03:04;;;;;;;3.23;2.10;;;;;;;;;;5030747;28;20507;-63
2021/04/29 11:05:31;;;;;;;3.57;2.27;;;;;;;;;;5030662;28;20435;-63
2021/04/29 11:08:04;;;;;;;1.83;1.50;;;;;;;;;;5032071;28;20443;-63
2021/04/29 11:10:32;;;;;;;3.50;1.27;;;;;;;;;;5031018;28;20408;-63
2021/04/29 11:12:58;;;;;;;2.60;1.77;;;;;;;;;;5031808;28;20414;-63
2021/04/29 11:15:36;;;;;;;4.27;2.03;;;;;;;;;;5030513;28;20419;-63
2021/04/29 11:18:04;;;;;;;2.70;1.60;;;;;;;;;;5032128;28;20465;-63
2021/04/29 11:20:40;;;;;;;1.40;1.23;;;;;;;;;;5030845;28;20469;-63
2021/04/29 11:23:07;;;;;;;1.60;1.50;;;;;;;;;;5030765;28;20953;-64
2021/04/29 11:25:33;;;;;;;1.30;1.20;;;;;;;;;;5031249;28;20794;-63
2021/04/29 11:27:58;;;;;;;2.03;1.47;;;;;;;;;;5031217;28;20494;-64
2021/04/29 11:30:25;;;;;;;1.60;1.40;;;;;;;;;;5030776;28;20498;-63
2021/04/29 11:32:54;;;;;;;1.47;1.20;;;;;;;;;;5034858;28;20435;-62
2021/04/29 11:35:21;;;;;;;1.90;1.77;;;;;;;;;;5059793;22;20497;-64
2021/04/29 11:37:48;;;;;;;1.33;1.23;;;;;;;;;;5052159;28;20472;-66
2021/04/29 11:40:14;;;;;;;1.60;1.50;;;;;;;;;;5053678;28;20449;-67
2021/04/29 11:42:43;;;;;;;1.37;1.20;;;;;;;;;;5053029;28;20471;-65
2021/04/29 11:45:11;;;;;;;3.00;1.80;;;;;;;;;;5054255;28;20384;-66
2021/04/29 11:47:38;;;;;;;1.93;1.83;;;;;;;;;;5049934;28;20893;-63
2021/04/29 11:50:05;;;;;;;1.47;1.37;;;;;;;;;;5053242;28;20456;-66
2021/04/29 11:52:31;;;;;;;2.00;1.60;;;;;;;;;;5053774;28;20449;-68
2021/04/29 11:54:57;;;;;;;1.53;1.43;;;;;;;;;;5053856;28;20443;-68
2021/04/29 11:57:23;;;;;;;1.50;1.40;;;;;;;;;;5053516;28;20437;-68
2021/04/29 11:59:53;;;;;;;4.53;1.90;;;;;;;;;;5052556;28;20445;-67
2021/04/29 12:02:19;;;;;;;1.03;1.03;;;;;;;;;;5053642;28;20460;-66
2021/04/29 12:04:46;;;;;;;1.10;1.00;;;;;;;;;;5035766;28;20418;-67
2021/04/29 12:07:12;;;;;;;1.87;1.77;;;;;;;;;;5053486;28;20434;-63
2021/04/29 12:09:38;;;;;;;1.93;1.70;;;;;;;;;;5034970;28;20557;-66
2021/04/29 12:12:13;;;;;;;2.20;0.90;;;;;;;;;;5053201;28;20421;-66
2021/04/29 12:14:39;;;;;;;1.27;0.63;;;;;;;;;;5035544;28;20417;-66
2021/04/29 12:17:06;;;;;;;1.50;1.40;;;;;;;;;;5053458;28;20404;-67
2021/04/29 12:19:33;;;;;;;0.90;0.90;;;;;;;;;;5052529;28;20557;-67
2021/04/29 12:22:00;;;;;;;2.00;1.30;;;;;;;;;;5053206;28;20418;-67
2021/04/29 12:24:31;;;;;;;2.10;0.87;;;;;;;;;;5052773;28;20406;-67
2021/04/29 12:26:57;;;;;;;2.40;1.43;;;;;;;;;;5053057;28;20445;-65
2021/04/29 12:29:23;;;;;;;1.47;1.37;;;;;;;;;;5052684;28;20892;-67
2021/04/29 12:31:56;;;;;;;1.60;1.50;;;;;;;;;;5053112;28;20624;-67
2021/04/29 12:34:23;;;;;;;1.47;1.37;;;;;;;;;;5053053;28;20389;-67
2021/04/29 12:36:59;;;;;;;1.00;0.87;;;;;;;;;;5052753;28;20508;-64
2021/04/29 12:39:26;;;;;;;1.43;0.90;;;;;;;;;;5034517;28;20493;-66
2021/04/29 12:41:53;;;;;;;0.93;0.90;;;;;;;;;;5053099;28;20406;-66
2021/04/29 12:44:19;;;;;;;1.50;1.40;;;;;;;;;;5053060;28;20496;-68
2021/04/29 12:46:46;;;;;;;1.50;1.40;;;;;;;;;;5052480;28;20438;-67
2021/04/29 12:49:13;;;;;;;1.43;1.23;;;;;;;;;;5052000;28;20548;-67
2021/04/29 12:51:40;;;;;;;1.23;1.13;;;;;;;;;;5034617;28;20540;-66
2021/04/29 12:54:11;;;;;;;1.77;1.23;;;;;;;;;;5052679;28;20461;-67
2021/04/29 12:56:41;;;;;;;3.13;1.37;;;;;;;;;;5050756;28;20517;-66
2021/04/29 12:59:17;;;;;;;2.03;1.90;;;;;;;;;;5051383;28;20458;-67
2021/04/29 13:01:44;;;;;;;1.70;1.60;;;;;;;;;;5052575;28;20406;-67
2021/04/29 13:04:19;;;;;;;1.33;1.27;;;;;;;;;;5049865;28;20516;-68
2021/04/29 13:06:45;;;;;;;1.10;1.00;;;;;;;;;;5071180;28;20530;-66
2021/04/29 13:09:11;;;;;;;3.37;1.23;;;;;;;;;;5071329;28;20413;-66
2021/04/29 13:11:40;;;;;;;1.30;1.20;;;;;;;;;;5071687;28;20429;-67
2021/04/29 13:14:08;;;;;;;1.43;1.20;;;;;;;;;;5072034;28;20904;-67
2021/04/29 13:16:35;;;;;;;1.63;1.10;;;;;;;;;;5071762;28;20936;-67
2021/04/29 13:19:01;;;;;;;1.37;1.27;;;;;;;;;;5070938;28;20499;-67
2021/04/29 13:21:27;;;;;;;1.70;1.60;;;;;;;;;;5071790;28;20489;-66
2021/04/29 13:23:54;;;;;;;1.93;1.10;;;;;;;;;;5071531;28;20405;-66
2021/04/29 13:26:20;;;;;;;1.42;1.30;;;;;;;;;;5071727;28;20430;-66
2021/04/29 13:28:46;;;;;;;2.17;1.30;;;;;;;;;;5071161;28;20518;-66
2021/04/29 13:31:12;;;;;;;1.10;1.10;;;;;;;;;;5071021;28;20408;-67
2021/04/29 13:33:38;;;;;;;2.30;1.37;;;;;;;;;;5071591;28;20402;-67
2021/04/29 13:36:04;;;;;;;2.25;2.05;;;;;;;;;;5071079;28;20426;-65
2021/04/29 13:38:31;;;;;;;4.35;1.42;;;;;;;;;;5071966;28;20226;-67
2021/04/29 13:40:57;;;;;;;2.85;1.80;;;;;;;;;;5070893;28;20208;-67
2021/04/29 13:43:23;;;;;;;3.50;1.43;;;;;;;;;;5071340;28;20245;-68
2021/04/29 13:45:49;;;;;;;1.75;1.65;;;;;;;;;;5071221;28;20422;-67
2021/04/29 13:48:15;;;;;;;1.43;1.33;;;;;;;;;;5070968;28;20182;-66
2021/04/29 13:50:41;;;;;;;1.60;1.50;;;;;;;;;;5070500;28;20440;-67
2021/04/29 13:53:07;;;;;;;1.30;1.20;;;;;;;;;;5070911;28;20182;-66
2021/04/29 13:55:33;;;;;;;1.75;1.30;;;;;;;;;;5071298;28;20780;-68
2021/04/29 13:57:59;;;;;;;1.85;1.63;;;;;;;;;;5052997;28;20230;-68
2021/04/29 14:00:26;;;;;;;2.00;1.60;;;;;;;;;;5070194;28;20575;-67
2021/04/29 14:02:52;;;;;;;1.80;1.35;;;;;;;;;;5071095;28;20410;-68
2021/04/29 14:05:18;;;;;;;3.27;1.33;;;;;;;;;;5070655;28;20535;-67
2021/04/29 14:07:44;;;;;;;1.60;1.50;;;;;;;;;;5070889;28;20404;-66
2021/04/29 14:10:11;;;;;;;2.33;1.77;;;;;;;;;;5070373;28;20402;-66
2021/04/29 14:12:37;;;;;;;1.53;1.17;;;;;;;;;;5070912;28;20412;-68
2021/04/29 14:15:04;;;;;;;2.87;1.50;;;;;;;;;;5070901;28;20491;-67
2021/04/29 14:17:30;;;;;;;3.90;1.40;;;;;;;;;;5070547;28;20471;-67
2021/04/29 14:19:56;;;;;;;3.17;1.50;;;;;;;;;;5070216;28;21171;-66
2021/04/29 14:22:22;;;;;;;2.73;1.90;;;;;;;;;;5070883;28;20811;-66
2021/04/29 14:24:48;;;;;;;2.33;1.30;;;;;;;;;;5071094;28;20458;-65
2021/04/29 14:27:15;;;;;;;1.40;1.30;;;;;;;;;;5071139;28;21171;-66
2021/04/29 14:29:41;;;;;;;3.00;2.03;;;;;;;;;;5070582;28;20905;-67
2021/04/29 14:32:07;;;;;;;1.00;1.00;;;;;;;;;;5070883;28;20558;-67
2021/04/29 14:34:33;;;;;;;1.63;1.53;;;;;;;;;;5070652;28;20412;-66
2021/04/29 14:37:01;;;;;;;1.70;1.60;;;;;;;;;;5070279;28;20971;-66
2021/04/29 14:39:27;;;;;;;1.43;1.33;;;;;;;;;;5070190;28;20461;-66
2021/04/29 14:41:53;;;;;;;0.73;0.73;;;;;;;;;;5070820;28;20409;-67